sensor_id;sensor_type;location;lat;lon;timestamp;pressure;altitude;pressure_sealevel;temperature;humidity
55675;BME280;41562;44.330;23.802;2023-11-19T00:01:49;100156.28;;;4.74;91.85
55675;BME280;41562;44.330;23.802;2023-11-19T00:04:18;100149.66;;;4.72;91.76
55675;BME280;41562;44.330;23.802;2023-11-19T00:06:46;100148.88;;;4.60;92.09
55675;BME280;41562;44.330;23.802;2023-11-19T00:09:15;100141.19;;;4.47;91.51
55675;BME280;41562;44.330;23.802;2023-11-19T00:11:43;100145.63;;;4.58;91.63
55675;BME280;41562;44.330;23.802;2023-11-19T00:14:20;100145.31;;;4.54;91.49
55675;BME280;41562;44.330;23.802;2023-11-19T00:16:49;100139.13;;;4.25;93.50
55675;BME280;41562;44.330;23.802;2023-11-19T00:19:18;100134.75;;;4.19;95.22
55675;BME280;41562;44.330;23.802;2023-11-19T00:21:47;100136.16;;;4.22;94.17
55675;BME280;41562;44.330;23.802;2023-11-19T00:24:14;100144.44;;;4.14;93.94
55675;BME280;41562;44.330;23.802;2023-11-19T00:26:42;100158.91;;;4.11;94.27
55675;BME280;41562;44.330;23.802;2023-11-19T00:29:10;100152.38;;;3.90;95.92
55675;BME280;41562;44.330;23.802;2023-11-19T00:31:38;100158.69;;;4.01;95.39
55675;BME280;41562;44.330;23.802;2023-11-19T00:34:07;100176.28;;;3.84;96.80
55675;BME280;41562;44.330;23.802;2023-11-19T00:36:35;100164.56;;;4.03;97.15
55675;BME280;41562;44.330;23.802;2023-11-19T00:39:03;100162.72;;;4.15;95.41
55675;BME280;41562;44.330;23.802;2023-11-19T00:41:30;100168.03;;;4.15;94.80
55675;BME280;41562;44.330;23.802;2023-11-19T00:43:59;100169.06;;;4.14;95.40
55675;BME280;41562;44.330;23.802;2023-11-19T00:46:26;100171.69;;;4.14;94.42
55675;BME280;41562;44.330;23.802;2023-11-19T00:48:54;100163.88;;;4.19;93.59
55675;BME280;41562;44.330;23.802;2023-11-19T00:51:22;100162.63;;;4.22;92.98
55675;BME280;41562;44.330;23.802;2023-11-19T00:53:51;100170.44;;;4.28;94.21
55675;BME280;41562;44.330;23.802;2023-11-19T00:56:20;100172.97;;;4.23;94.36
55675;BME280;41562;44.330;23.802;2023-11-19T00:58:48;100161.44;;;4.18;93.88
55675;BME280;41562;44.330;23.802;2023-11-19T01:01:16;100162.84;;;4.20;94.45
55675;BME280;41562;44.330;23.802;2023-11-19T01:03:45;100155.59;;;4.04;94.81
55675;BME280;41562;44.330;23.802;2023-11-19T01:06:13;100162.47;;;4.05;97.04
55675;BME280;41562;44.330;23.802;2023-11-19T01:08:42;100157.06;;;4.12;94.55
55675;BME280;41562;44.330;23.802;2023-11-19T01:11:19;100158.69;;;4.01;94.65
55675;BME280;41562;44.330;23.802;2023-11-19T01:13:47;100150.53;;;3.91;95.99
55675;BME280;41562;44.330;23.802;2023-11-19T01:16:15;100142.47;;;3.86;97.50
55675;BME280;41562;44.330;23.802;2023-11-19T01:18:46;100152.22;;;3.74;96.66
55675;BME280;41562;44.330;23.802;2023-11-19T01:21:14;100158.56;;;3.73;97.05
55675;BME280;41562;44.330;23.802;2023-11-19T01:23:43;100160.25;;;3.67;99.94
55675;BME280;41562;44.330;23.802;2023-11-19T01:26:11;100156.03;;;3.78;100.00
55675;BME280;41562;44.330;23.802;2023-11-19T01:28:40;100165.66;;;3.60;98.62
55675;BME280;41562;44.330;23.802;2023-11-19T01:31:19;100160.84;;;3.57;97.35
55675;BME280;41562;44.330;23.802;2023-11-19T01:33:47;100157.84;;;3.54;97.06
55675;BME280;41562;44.330;23.802;2023-11-19T01:36:15;100161.75;;;3.51;99.06
55675;BME280;41562;44.330;23.802;2023-11-19T01:38:43;100161.63;;;3.46;98.07
55675;BME280;41562;44.330;23.802;2023-11-19T01:41:12;100169.19;;;3.43;98.39
55675;BME280;41562;44.330;23.802;2023-11-19T01:43:39;100170.28;;;3.35;98.73
55675;BME280;41562;44.330;23.802;2023-11-19T01:46:07;100167.44;;;3.37;98.37
55675;BME280;41562;44.330;23.802;2023-11-19T01:48:36;100171.34;;;3.34;100.00
55675;BME280;41562;44.330;23.802;2023-11-19T01:51:05;100169.88;;;3.38;99.82
55675;BME280;41562;44.330;23.802;2023-11-19T01:53:33;100178.84;;;3.49;98.34
55675;BME280;41562;44.330;23.802;2023-11-19T01:56:01;100165.91;;;3.29;99.94
55675;BME280;41562;44.330;23.802;2023-11-19T01:58:30;100181.75;;;3.29;99.53
55675;BME280;41562;44.330;23.802;2023-11-19T02:00:58;100179.13;;;2.99;99.90
55675;BME280;41562;44.330;23.802;2023-11-19T02:03:27;100177.00;;;3.08;99.70
55675;BME280;41562;44.330;23.802;2023-11-19T02:05:56;100174.09;;;2.79;100.00
55675;BME280;41562;44.330;23.802;2023-11-19T02:08:24;100177.31;;;2.81;100.00
55675;BME280;41562;44.330;23.802;2023-11-19T02:10:52;100183.59;;;2.99;100.00
55675;BME280;41562;44.330;23.802;2023-11-19T02:13:21;100187.81;;;2.88;100.00
55675;BME280;41562;44.330;23.802;2023-11-19T02:15:49;100183.16;;;3.02;100.00
55675;BME280;41562;44.330;23.802;2023-11-19T02:18:21;100181.91;;;3.04;100.00
55675;BME280;41562;44.330;23.802;2023-11-19T02:20:49;100192.75;;;3.14;100.00
55675;BME280;41562;44.330;23.802;2023-11-19T02:23:23;100187.91;;;3.11;100.00
55675;BME280;41562;44.330;23.802;2023-11-19T02:25:58;100180.19;;;3.28;100.00
55675;BME280;41562;44.330;23.802;2023-11-19T02:28:27;100191.13;;;3.13;99.64
55675;BME280;41562;44.330;23.802;2023-11-19T02:30:57;100190.38;;;2.95;99.88
55675;BME280;41562;44.330;23.802;2023-11-19T02:33:25;100187.91;;;3.11;99.64
55675;BME280;41562;44.330;23.802;2023-11-19T02:35:54;100191.88;;;3.20;100.00
55675;BME280;41562;44.330;23.802;2023-11-19T02:38:21;100201.63;;;3.20;98.88
55675;BME280;41562;44.330;23.802;2023-11-19T02:40:49;100201.31;;;3.10;98.90
55675;BME280;41562;44.330;23.802;2023-11-19T02:43:17;100208.53;;;2.84;99.47
55675;BME280;41562;44.330;23.802;2023-11-19T02:45:45;100211.19;;;2.66;100.00
55675;BME280;41562;44.330;23.802;2023-11-19T02:48:14;100214.41;;;2.32;100.00
55675;BME280;41562;44.330;23.802;2023-11-19T02:50:42;100213.41;;;2.51;100.00
55675;BME280;41562;44.330;23.802;2023-11-19T02:53:09;100210.31;;;2.72;100.00
55675;BME280;41562;44.330;23.802;2023-11-19T02:55:37;100205.63;;;2.56;100.00
55675;BME280;41562;44.330;23.802;2023-11-19T02:58:05;100215.75;;;2.59;100.00
55675;BME280;41562;44.330;23.802;2023-11-19T03:00:33;100208.53;;;2.48;100.00
55675;BME280;41562;44.330;23.802;2023-11-19T03:03:02;100207.38;;;2.44;100.00
55675;BME280;41562;44.330;23.802;2023-11-19T03:05:30;100201.31;;;2.62;100.00
55675;BME280;41562;44.330;23.802;2023-11-19T03:07:57;100198.66;;;2.62;100.00
55675;BME280;41562;44.330;23.802;2023-11-19T03:10:25;100191.84;;;2.72;100.00
55675;BME280;41562;44.330;23.802;2023-11-19T03:12:52;100193.38;;;2.62;100.00
55675;BME280;41562;44.330;23.802;2023-11-19T03:15:22;100191.41;;;2.57;100.00
55675;BME280;41562;44.330;23.802;2023-11-19T03:17:50;100199.47;;;2.62;100.00
55675;BME280;41562;44.330;23.802;2023-11-19T03:20:18;100210.03;;;2.80;100.00
55675;BME280;41562;44.330;23.802;2023-11-19T03:22:46;100203.44;;;2.71;100.00
55675;BME280;41562;44.330;23.802;2023-11-19T03:25:17;100203.59;;;2.58;100.00
55675;BME280;41562;44.330;23.802;2023-11-19T03:27:55;100209.28;;;2.55;100.00
55675;BME280;41562;44.330;23.802;2023-11-19T03:30:24;100196.53;;;2.52;100.00
55675;BME280;41562;44.330;23.802;2023-11-19T03:33:00;100199.63;;;2.67;100.00
55675;BME280;41562;44.330;23.802;2023-11-19T03:35:29;100204.81;;;2.92;100.00
55675;BME280;41562;44.330;23.802;2023-11-19T03:37:57;100196.53;;;2.70;100.00
55675;BME280;41562;44.330;23.802;2023-11-19T03:40:25;100196.47;;;2.77;100.00
55675;BME280;41562;44.330;23.802;2023-11-19T03:42:55;100199.47;;;2.80;100.00
55675;BME280;41562;44.330;23.802;2023-11-19T03:45:24;100194.84;;;2.94;100.00
55675;BME280;41562;44.330;23.802;2023-11-19T03:47:53;100206.03;;;3.08;100.00
55675;BME280;41562;44.330;23.802;2023-11-19T03:50:21;100201.31;;;3.10;100.00
55675;BME280;41562;44.330;23.802;2023-11-19T03:52:49;100196.47;;;2.95;100.00
55675;BME280;41562;44.330;23.802;2023-11-19T03:55:17;100198.72;;;2.92;100.00
55675;BME280;41562;44.330;23.802;2023-11-19T03:57:44;100199.31;;;2.94;100.00
55675;BME280;41562;44.330;23.802;2023-11-19T04:00:12;100194.03;;;2.94;100.00
55675;BME280;41562;44.330;23.802;2023-11-19T04:02:40;100189.84;;;2.86;100.00
55675;BME280;41562;44.330;23.802;2023-11-19T04:05:08;100195.44;;;2.96;100.00
55675;BME280;41562;44.330;23.802;2023-11-19T04:07:36;100198.72;;;2.92;100.00
55675;BME280;41562;44.330;23.802;2023-11-19T04:10:04;100199.19;;;2.89;100.00
55675;BME280;41562;44.330;23.802;2023-11-19T04:12:32;100198.72;;;2.92;100.00
55675;BME280;41562;44.330;23.802;2023-11-19T04:15:00;100195.44;;;2.78;100.00
55675;BME280;41562;44.330;23.802;2023-11-19T04:17:28;100196.22;;;2.78;100.00
55675;BME280;41562;44.330;23.802;2023-11-19T04:19:56;100212.38;;;2.70;100.00
55675;BME280;41562;44.330;23.802;2023-11-19T04:22:24;100210.31;;;2.72;100.00
55675;BME280;41562;44.330;23.802;2023-11-19T04:24:51;100211.72;;;2.57;100.00
55675;BME280;41562;44.330;23.802;2023-11-19T04:27:22;100213.41;;;2.51;100.00
55675;BME280;41562;44.330;23.802;2023-11-19T04:29:49;100225.56;;;2.52;100.00
55675;BME280;41562;44.330;23.802;2023-11-19T04:32:17;100217.94;;;2.44;100.00
55675;BME280;41562;44.330;23.802;2023-11-19T04:34:45;100201.50;;;2.60;100.00
55675;BME280;41562;44.330;23.802;2023-11-19T04:37:12;100206.94;;;2.47;100.00
55675;BME280;41562;44.330;23.802;2023-11-19T04:39:40;100199.31;;;2.57;100.00
55675;BME280;41562;44.330;23.802;2023-11-19T04:42:08;100207.66;;;2.54;100.00
55675;BME280;41562;44.330;23.802;2023-11-19T04:44:36;100200.72;;;2.60;100.00
55675;BME280;41562;44.330;23.802;2023-11-19T04:47:03;100197.94;;;2.55;100.00
55675;BME280;41562;44.330;23.802;2023-11-19T04:49:34;100202.47;;;2.48;100.00
55675;BME280;41562;44.330;23.802;2023-11-19T04:52:02;100201.97;;;2.39;100.00
55675;BME280;41562;44.330;23.802;2023-11-19T04:54:30;100204.00;;;2.37;100.00
55675;BME280;41562;44.330;23.802;2023-11-19T04:56:57;100205.75;;;2.43;100.00
55675;BME280;41562;44.330;23.802;2023-11-19T04:59:25;100203.09;;;2.25;100.00
55675;BME280;41562;44.330;23.802;2023-11-19T05:01:54;100195.72;;;2.33;100.00
55675;BME280;41562;44.330;23.802;2023-11-19T05:04:21;100194.19;;;2.44;100.00
55675;BME280;41562;44.330;23.802;2023-11-19T05:06:49;100198.94;;;2.35;100.00
55675;BME280;41562;44.330;23.802;2023-11-19T05:09:17;100207.44;;;5.88;100.00
55675;BME280;41562;44.330;23.802;2023-11-19T05:11:45;100208.44;;;9.92;85.82
55675;BME280;41562;44.330;23.802;2023-11-19T05:14:16;100212.09;;;10.67;82.49
55675;BME280;41562;44.330;23.802;2023-11-19T05:16:44;100210.19;;;7.31;92.98
55675;BME280;41562;44.330;23.802;2023-11-19T05:19:12;100218.09;;;5.03;89.83
55675;BME280;41562;44.330;23.802;2023-11-19T05:21:41;100218.84;;;3.94;97.33
55675;BME280;41562;44.330;23.802;2023-11-19T05:24:09;100220.63;;;3.10;100.00
55675;BME280;41562;44.330;23.802;2023-11-19T05:26:38;100219.25;;;3.08;100.00
55675;BME280;41562;44.330;23.802;2023-11-19T05:29:06;100217.09;;;3.88;100.00
55675;BME280;41562;44.330;23.802;2023-11-19T05:31:35;100218.28;;;3.20;100.00
55675;BME280;41562;44.330;23.802;2023-11-19T05:34:05;100234.44;;;2.94;100.00
55675;BME280;41562;44.330;23.802;2023-11-19T05:36:34;100246.69;;;2.89;100.00
55675;BME280;41562;44.330;23.802;2023-11-19T05:39:01;100239.38;;;2.91;100.00
55675;BME280;41562;44.330;23.802;2023-11-19T05:41:29;100236.53;;;9.07;89.04
55675;BME280;41562;44.330;23.802;2023-11-19T05:43:57;100239.94;;;10.56;75.90
55675;BME280;41562;44.330;23.802;2023-11-19T05:46:25;100234.25;;;10.77;73.12
55675;BME280;41562;44.330;23.802;2023-11-19T05:48:53;100233.59;;;11.16;71.02
55675;BME280;41562;44.330;23.802;2023-11-19T05:51:21;100219.88;;;10.68;70.83
55675;BME280;41562;44.330;23.802;2023-11-19T05:53:49;100221.00;;;10.42;71.26
55675;BME280;41562;44.330;23.802;2023-11-19T05:56:19;100220.22;;;7.50;79.24
55675;BME280;41562;44.330;23.802;2023-11-19T05:58:47;100220.38;;;5.40;90.35
55675;BME280;41562;44.330;23.802;2023-11-19T06:01:16;100220.47;;;4.65;95.13
55675;BME280;41562;44.330;23.802;2023-11-19T06:03:44;100216.44;;;4.04;99.00
55675;BME280;41562;44.330;23.802;2023-11-19T06:06:14;100215.25;;;3.88;100.00
55675;BME280;41562;44.330;23.802;2023-11-19T06:08:42;100219.03;;;3.81;100.00
55675;BME280;41562;44.330;23.802;2023-11-19T06:11:11;100228.69;;;3.75;100.00
55675;BME280;41562;44.330;23.802;2023-11-19T06:13:39;100233.03;;;3.70;100.00
55675;BME280;41562;44.330;23.802;2023-11-19T06:16:08;100254.00;;;3.83;100.00
55675;BME280;41562;44.330;23.802;2023-11-19T06:18:36;100258.50;;;3.82;100.00
55675;BME280;41562;44.330;23.802;2023-11-19T06:21:10;100265.03;;;3.80;100.00
55675;BME280;41562;44.330;23.802;2023-11-19T06:23:38;100266.63;;;3.81;100.00
55675;BME280;41562;44.330;23.802;2023-11-19T06:26:06;100270.84;;;4.00;100.00
55675;BME280;41562;44.330;23.802;2023-11-19T06:28:42;100262.56;;;4.08;100.00
55675;BME280;41562;44.330;23.802;2023-11-19T06:31:13;100265.91;;;4.03;100.00
55675;BME280;41562;44.330;23.802;2023-11-19T06:33:42;100269.47;;;4.09;100.00
55675;BME280;41562;44.330;23.802;2023-11-19T06:36:13;100271.72;;;4.47;100.00
55675;BME280;41562;44.330;23.802;2023-11-19T06:38:42;100276.41;;;4.80;98.65
55675;BME280;41562;44.330;23.802;2023-11-19T06:41:10;100281.75;;;5.20;96.29
55675;BME280;41562;44.330;23.802;2023-11-19T06:43:39;100283.84;;;5.18;96.88
55675;BME280;41562;44.330;23.802;2023-11-19T06:46:16;100279.47;;;5.52;95.77
55675;BME280;41562;44.330;23.802;2023-11-19T06:48:50;100286.75;;;5.73;93.35
55675;BME280;41562;44.330;23.802;2023-11-19T06:51:25;100294.22;;;5.88;92.26
55675;BME280;41562;44.330;23.802;2023-11-19T06:53:54;100279.06;;;5.32;95.47
55675;BME280;41562;44.330;23.802;2023-11-19T06:56:22;100283.81;;;5.30;95.37
55675;BME280;41562;44.330;23.802;2023-11-19T06:58:50;100284.03;;;5.28;96.74
55675;BME280;41562;44.330;23.802;2023-11-19T07:01:24;100286.50;;;5.06;97.79
55675;BME280;41562;44.330;23.802;2023-11-19T07:03:55;100291.44;;;5.14;97.28
55675;BME280;41562;44.330;23.802;2023-11-19T07:06:26;100290.34;;;5.39;96.64
55675;BME280;41562;44.330;23.802;2023-11-19T07:08:57;100294.25;;;5.48;96.48
55675;BME280;41562;44.330;23.802;2023-11-19T07:11:24;100296.31;;;5.46;96.87
55675;BME280;41562;44.330;23.802;2023-11-19T07:13:55;100297.22;;;5.80;100.00
55675;BME280;41562;44.330;23.802;2023-11-19T07:16:23;100305.78;;;6.43;94.52
55675;BME280;41562;44.330;23.802;2023-11-19T07:18:51;100297.69;;;7.10;88.37
55675;BME280;41562;44.330;23.802;2023-11-19T07:21:19;100306.09;;;9.57;84.37
55675;BME280;41562;44.330;23.802;2023-11-19T07:23:47;100308.34;;;8.34;84.28
55675;BME280;41562;44.330;23.802;2023-11-19T07:26:15;100293.88;;;7.45;85.06
55675;BME280;41562;44.330;23.802;2023-11-19T07:28:43;100301.72;;;7.35;86.82
55675;BME280;41562;44.330;23.802;2023-11-19T07:31:11;100300.91;;;7.12;88.25
55675;BME280;41562;44.330;23.802;2023-11-19T07:33:40;100301.28;;;6.99;89.21
55675;BME280;41562;44.330;23.802;2023-11-19T07:36:11;100303.34;;;6.75;91.06
55675;BME280;41562;44.330;23.802;2023-11-19T07:38:39;100299.38;;;6.78;90.75
55675;BME280;41562;44.330;23.802;2023-11-19T07:41:07;100314.59;;;6.82;93.00
55675;BME280;41562;44.330;23.802;2023-11-19T07:43:35;100328.66;;;7.21;93.48
55675;BME280;41562;44.330;23.802;2023-11-19T07:46:04;100328.94;;;7.20;89.68
55675;BME280;41562;44.330;23.802;2023-11-19T07:48:31;100322.97;;;7.35;89.40
55675;BME280;41562;44.330;23.802;2023-11-19T07:50:59;100316.31;;;7.32;87.95
55675;BME280;41562;44.330;23.802;2023-11-19T07:53:26;100312.63;;;7.33;89.99
55675;BME280;41562;44.330;23.802;2023-11-19T07:55:54;100322.38;;;7.49;87.86
55675;BME280;41562;44.330;23.802;2023-11-19T07:58:21;100323.84;;;7.40;86.85
55675;BME280;41562;44.330;23.802;2023-11-19T08:00:50;100313.16;;;7.35;87.02
55675;BME280;41562;44.330;23.802;2023-11-19T08:03:17;100315.56;;;7.58;88.81
55675;BME280;41562;44.330;23.802;2023-11-19T08:05:45;100312.84;;;7.53;87.65
55675;BME280;41562;44.330;23.802;2023-11-19T08:08:13;100313.78;;;7.64;88.48
55675;BME280;41562;44.330;23.802;2023-11-19T08:10:41;100322.81;;;7.63;85.66
55675;BME280;41562;44.330;23.802;2023-11-19T08:13:08;100320.69;;;7.92;88.49
55675;BME280;41562;44.330;23.802;2023-11-19T08:15:36;100314.06;;;8.21;84.65
55675;BME280;41562;44.330;23.802;2023-11-19T08:18:03;100311.72;;;8.30;83.93
55675;BME280;41562;44.330;23.802;2023-11-19T08:20:30;100316.47;;;8.23;83.67
55675;BME280;41562;44.330;23.802;2023-11-19T08:22:58;100319.50;;;8.31;85.42
55675;BME280;41562;44.330;23.802;2023-11-19T08:25:26;100323.16;;;8.25;86.16
55675;BME280;41562;44.330;23.802;2023-11-19T08:27:54;100311.06;;;8.13;84.07
55675;BME280;41562;44.330;23.802;2023-11-19T08:30:21;100308.75;;;8.21;84.16
55675;BME280;41562;44.330;23.802;2023-11-19T08:32:49;100313.31;;;8.26;84.19
55675;BME280;41562;44.330;23.802;2023-11-19T08:35:16;100301.31;;;8.28;87.24
55675;BME280;41562;44.330;23.802;2023-11-19T08:37:44;100297.69;;;8.34;84.13
55675;BME280;41562;44.330;23.802;2023-11-19T08:40:12;100310.22;;;8.34;84.41
55675;BME280;41562;44.330;23.802;2023-11-19T08:42:39;100308.66;;;8.43;84.92
55675;BME280;41562;44.330;23.802;2023-11-19T08:45:07;100313.34;;;8.63;82.85
55675;BME280;41562;44.330;23.802;2023-11-19T08:47:35;100309.00;;;8.52;82.96
55675;BME280;41562;44.330;23.802;2023-11-19T08:50:03;100318.56;;;8.47;82.95
55675;BME280;41562;44.330;23.802;2023-11-19T08:52:31;100322.22;;;8.73;84.95
55675;BME280;41562;44.330;23.802;2023-11-19T08:55:02;100318.50;;;8.74;86.30
55675;BME280;41562;44.330;23.802;2023-11-19T08:57:30;100310.22;;;8.71;82.28
55675;BME280;41562;44.330;23.802;2023-11-19T08:59:57;100310.19;;;8.66;81.76
55675;BME280;41562;44.330;23.802;2023-11-19T09:02:26;100300.31;;;8.66;88.84
55675;BME280;41562;44.330;23.802;2023-11-19T09:04:54;100299.59;;;8.81;84.90
55675;BME280;41562;44.330;23.802;2023-11-19T09:07:21;100294.75;;;8.73;82.17
55675;BME280;41562;44.330;23.802;2023-11-19T09:09:49;100290.38;;;8.57;81.97
55675;BME280;41562;44.330;23.802;2023-11-19T09:12:17;100287.78;;;8.67;83.98
55675;BME280;41562;44.330;23.802;2023-11-19T09:14:45;100296.34;;;8.74;85.52
55675;BME280;41562;44.330;23.802;2023-11-19T09:17:12;100288.22;;;8.96;82.12
55675;BME280;41562;44.330;23.802;2023-11-19T09:19:40;100281.53;;;8.93;81.24
55675;BME280;41562;44.330;23.802;2023-11-19T09:22:08;100271.44;;;8.95;80.48
55675;BME280;41562;44.330;23.802;2023-11-19T09:24:35;100269.09;;;9.04;78.93
55675;BME280;41562;44.330;23.802;2023-11-19T09:27:03;100255.53;;;9.15;78.29
55675;BME280;41562;44.330;23.802;2023-11-19T09:29:34;100252.00;;;9.05;80.27
55675;BME280;41562;44.330;23.802;2023-11-19T09:32:01;100254.16;;;9.13;79.91
55675;BME280;41562;44.330;23.802;2023-11-19T09:34:32;100258.53;;;9.44;86.96
55675;BME280;41562;44.330;23.802;2023-11-19T09:36:59;100266.28;;;9.36;78.40
55675;BME280;41562;44.330;23.802;2023-11-19T09:39:27;100250.78;;;9.33;79.50
55675;BME280;41562;44.330;23.802;2023-11-19T09:41:56;100246.56;;;9.47;78.88
55675;BME280;41562;44.330;23.802;2023-11-19T09:44:24;100238.06;;;9.65;84.65
55675;BME280;41562;44.330;23.802;2023-11-19T09:46:54;100242.03;;;9.62;76.02
55675;BME280;41562;44.330;23.802;2023-11-19T09:49:23;100235.34;;;9.45;78.72
55675;BME280;41562;44.330;23.802;2023-11-19T09:51:56;100235.88;;;9.42;76.96
55675;BME280;41562;44.330;23.802;2023-11-19T09:54:23;100243.34;;;9.45;76.90
55675;BME280;41562;44.330;23.802;2023-11-19T09:56:51;100240.13;;;9.43;78.27
55675;BME280;41562;44.330;23.802;2023-11-19T09:59:20;100238.25;;;9.43;76.45
55675;BME280;41562;44.330;23.802;2023-11-19T10:01:48;100238.81;;;9.45;75.61
55675;BME280;41562;44.330;23.802;2023-11-19T10:04:17;100234.56;;;9.59;83.94
55675;BME280;41562;44.330;23.802;2023-11-19T10:06:46;100244.69;;;9.52;77.44
55675;BME280;41562;44.330;23.802;2023-11-19T10:09:14;100247.13;;;9.59;79.25
55675;BME280;41562;44.330;23.802;2023-11-19T10:11:42;100243.91;;;9.62;76.67
55675;BME280;41562;44.330;23.802;2023-11-19T10:14:09;100232.16;;;9.63;76.55
55675;BME280;41562;44.330;23.802;2023-11-19T10:16:37;100225.75;;;9.69;75.88
55675;BME280;41562;44.330;23.802;2023-11-19T10:19:05;100230.03;;;9.60;76.09
55675;BME280;41562;44.330;23.802;2023-11-19T10:21:33;100231.66;;;9.61;76.85
55675;BME280;41562;44.330;23.802;2023-11-19T10:24:01;100232.16;;;9.68;77.72
55675;BME280;41562;44.330;23.802;2023-11-19T10:26:28;100217.22;;;9.87;77.01
55675;BME280;41562;44.330;23.802;2023-11-19T10:28:56;100215.38;;;9.73;76.81
55675;BME280;41562;44.330;23.802;2023-11-19T10:31:24;100204.69;;;9.78;76.14
55675;BME280;41562;44.330;23.802;2023-11-19T10:33:51;100207.91;;;9.80;76.60
55675;BME280;41562;44.330;23.802;2023-11-19T10:36:19;100208.69;;;10.11;76.82
55675;BME280;41562;44.330;23.802;2023-11-19T10:38:51;100220.44;;;9.94;75.90
55675;BME280;41562;44.330;23.802;2023-11-19T10:41:26;100210.56;;;10.05;75.34
55675;BME280;41562;44.330;23.802;2023-11-19T10:43:54;100213.69;;;10.73;77.99
55675;BME280;41562;44.330;23.802;2023-11-19T10:46:23;100221.50;;;10.44;76.40
55675;BME280;41562;44.330;23.802;2023-11-19T10:49:02;100221.78;;;10.42;73.71
55675;BME280;41562;44.330;23.802;2023-11-19T10:51:30;100207.59;;;10.47;71.24
55675;BME280;41562;44.330;23.802;2023-11-19T10:54:02;100198.00;;;10.41;72.25
55675;BME280;41562;44.330;23.802;2023-11-19T10:56:30;100194.00;;;10.33;73.61
55675;BME280;41562;44.330;23.802;2023-11-19T10:58:58;100201.75;;;10.40;73.41
55675;BME280;41562;44.330;23.802;2023-11-19T11:01:27;100190.47;;;10.53;72.56
55675;BME280;41562;44.330;23.802;2023-11-19T11:03:59;100195.81;;;10.58;73.52
55675;BME280;41562;44.330;23.802;2023-11-19T11:06:27;100196.78;;;10.93;71.60
55675;BME280;41562;44.330;23.802;2023-11-19T11:08:55;100183.34;;;11.03;70.00
55675;BME280;41562;44.330;23.802;2023-11-19T11:11:23;100185.47;;;11.01;70.84
55675;BME280;41562;44.330;23.802;2023-11-19T11:13:53;100185.66;;;11.24;69.42
55675;BME280;41562;44.330;23.802;2023-11-19T11:16:22;100180.50;;;11.33;68.99
55675;BME280;41562;44.330;23.802;2023-11-19T11:18:51;100192.09;;;11.62;67.59
55675;BME280;41562;44.330;23.802;2023-11-19T11:21:23;100182.00;;;11.49;69.11
55675;BME280;41562;44.330;23.802;2023-11-19T11:24:06;100175.22;;;11.62;68.75
55675;BME280;41562;44.330;23.802;2023-11-19T11:29:16;100166.88;;;11.74;67.07
55675;BME280;41562;44.330;23.802;2023-11-19T11:37:34;100157.31;;;11.57;67.75
55675;BME280;41562;44.330;23.802;2023-11-19T11:40:05;100148.06;;;11.79;67.89
55675;BME280;41562;44.330;23.802;2023-11-19T11:42:33;100131.00;;;11.64;67.65
55675;BME280;41562;44.330;23.802;2023-11-19T11:55:26;100113.00;;;12.04;65.18
55675;BME280;41562;44.330;23.802;2023-11-19T11:57:55;100110.66;;;11.97;65.30
55675;BME280;41562;44.330;23.802;2023-11-19T12:02:57;100099.84;;;11.79;67.18
55675;BME280;41562;44.330;23.802;2023-11-19T12:05:26;100106.88;;;11.69;65.80
55675;BME280;41562;44.330;23.802;2023-11-19T12:07:55;100103.69;;;11.67;65.90
55675;BME280;41562;44.330;23.802;2023-11-19T12:10:28;100109.31;;;11.66;65.93
55675;BME280;41562;44.330;23.802;2023-11-19T12:13:01;100109.78;;;11.39;68.18
55675;BME280;41562;44.330;23.802;2023-11-19T12:15:29;100112.28;;;11.25;69.21
55675;BME280;41562;44.330;23.802;2023-11-19T12:17:57;100119.00;;;11.23;69.48
55675;BME280;41562;44.330;23.802;2023-11-19T12:20:25;100112.94;;;11.12;69.69
55675;BME280;41562;44.330;23.802;2023-11-19T12:22:56;100110.25;;;11.07;70.02
55675;BME280;41562;44.330;23.802;2023-11-19T12:25:24;100091.97;;;11.19;69.66
55675;BME280;41562;44.330;23.802;2023-11-19T12:27:52;100098.72;;;11.17;69.30
55675;BME280;41562;44.330;23.802;2023-11-19T12:30:26;100096.06;;;11.12;70.70
55675;BME280;41562;44.330;23.802;2023-11-19T12:32:54;100097.00;;;10.92;70.83
55675;BME280;41562;44.330;23.802;2023-11-19T12:35:23;100094.75;;;10.60;71.59
55675;BME280;41562;44.330;23.802;2023-11-19T12:37:54;100106.44;;;10.79;71.08
55675;BME280;41562;44.330;23.802;2023-11-19T12:40:23;100099.50;;;10.73;73.80
55675;BME280;41562;44.330;23.802;2023-11-19T12:42:54;100108.16;;;10.55;71.23
55675;BME280;41562;44.330;23.802;2023-11-19T12:45:23;100113.75;;;10.54;71.25
55675;BME280;41562;44.330;23.802;2023-11-19T12:48:04;100123.09;;;10.51;71.14
55675;BME280;41562;44.330;23.802;2023-11-19T12:53:21;100107.38;;;10.44;72.74
55675;BME280;41562;44.330;23.802;2023-11-19T12:55:50;100103.41;;;10.27;74.78
55675;BME280;41562;44.330;23.802;2023-11-19T12:58:29;100091.66;;;10.28;75.69
55675;BME280;41562;44.330;23.802;2023-11-19T13:01:06;100075.38;;;10.14;73.25
55675;BME280;41562;44.330;23.802;2023-11-19T13:03:38;100074.06;;;10.12;74.72
55675;BME280;41562;44.330;23.802;2023-11-19T13:06:06;100086.06;;;10.14;75.30
55675;BME280;41562;44.330;23.802;2023-11-19T13:08:39;100107.97;;;10.11;79.98
55675;BME280;41562;44.330;23.802;2023-11-19T13:11:08;100129.88;;;10.08;75.67
55675;BME280;41562;44.330;23.802;2023-11-19T13:13:55;100120.28;;;10.22;74.84
55675;BME280;41562;44.330;23.802;2023-11-19T13:16:23;100094.28;;;10.43;77.99
55675;BME280;41562;44.330;23.802;2023-11-19T13:18:52;100097.53;;;10.30;76.54